Amherst, TX (79312)

6:24 PM CDT on September 01, 2015 (GMT -0500)
WT_Meso | | Change Station
CLOSE
Current Station
Personal Weather Station
Location: Amherst, TX
Elevation: 3646 ft
Nearby Weather Stations

Elev 3646 ft 34.02 °N, 102.40 °W | Updated 29 minutes ago

Clear
Clear
90 °F
Feels Like 87 °F
N
12
Wind Variable Wind from SSE
Gusts 17.0 mph

Today
High -- | Low -- °F
--% Chance of Precip.
Yesterday
High -- | Low -- °F
Precip. -- in
7:23 AM 8:15 PM
Waning Gibbous, 85% visible
Pressure 30.02 in
Visibility 10.0 miles
Clouds Clear
Heat Index 87 °F
Dew Point 48 °F
Humidity 24%
Rainfall in
Snow Depth Not available.
UV 2 out of 12
Pollen 8.80 out of 12
Air Quality Not available.
Flu Activity Not available.
METAR KPVW 012315Z AUTO 17011G15KT 10SM CLR 32/10 A3002 RMK AO2 T03230103
Pressure 30.02 in
Visibility 10.0 miles
Clouds Clear
Heat Index 87 °F
Dew Point 48 °F
Humidity 24%
Rainfall in
Snow Depth Not available.
UV 2 out of 12
Pollen 8.80 out of 12
Air Quality Not available.
Flu Activity Not available.
METAR KPVW 012315Z AUTO 17011G15KT 10SM CLR 32/10 A3002 RMK AO2 T03230103

10-Day Weather Forecast

×

Almanac

Astronomy

Sep. 01, 2015 Rise Set
Actual Time
Civil Twilight
Nautical Twilight
Astronomical Twilight
Moon
Length of Visible Light
Length of Day
Tomorrow will be .
, % of the Moon is Illuminated

Today's Extremes

State Highs State Lows

Community

WunderPhotos

Upload Photos

1,851,640 photos uploaded!

WunderBlogs® & News

Nearby

Air Quality

  Air Quality AQ Index Pollutant
Not available.

Snow Depth

Station Depth Elevation

Earthquake Activity

City Distance Mag. Time & Date
Minimum magnitude displayed is 2.5.

Coastal Water Temperatures

Place Temperature

Stations

Nearby Weather Stations

Station Location Temp. Windchill Dew Point Humidity Wind Precip. Elev Updated Type